Time;durP1;ratioP1;P1;durP2;ratioP2;P2;SDS_P1;SDS_P2;PMS_P1;PMS_P2;Temp;Humidity;BMP_temperature;BMP_pressure;BME280_temperature;BME280_humidity;BME280_pressure;Samples;Min_cycle;Max_cycle;Signal;HPM_P1;HPM_P2
2023/01/08 00:00:52;;;;;;;7.05;3.60;;;9.80;99.90;;;;;;5056201;28;20059;-65
2023/01/08 00:03:18;;;;;;;7.40;3.15;;;9.80;99.90;;;;;;5055343;28;20481;-65
2023/01/08 00:05:43;;;;;;;6.85;3.28;;;9.80;99.90;;;;;;5039347;28;20048;-66
2023/01/08 00:08:09;;;;;;;8.30;4.10;;;9.80;99.90;;;;;;5055090;28;20450;-65
2023/01/08 00:10:36;;;;;;;6.90;3.33;;;9.80;99.90;;;;;;5056067;28;20040;-65
2023/01/08 00:13:02;;;;;;;6.57;3.53;;;9.80;99.90;;;;;;5056122;28;20405;-65
2023/01/08 00:15:29;;;;;;;6.30;3.38;;;9.80;99.90;;;;;;5038552;28;20094;-65
2023/01/08 00:17:55;;;;;;;8.75;4.22;;;9.80;99.90;;;;;;5055915;28;20090;-65
2023/01/08 00:20:21;;;;;;;8.43;3.53;;;9.80;99.90;;;;;;5055832;28;20396;-65
2023/01/08 00:22:48;;;;;;;6.57;3.33;;;9.80;99.90;;;;;;5054834;28;20040;-65
2023/01/08 00:25:14;;;;;;;7.10;3.85;;;9.80;99.90;;;;;;5073279;28;20512;-66
2023/01/08 00:27:39;;;;;;;6.15;3.45;;;9.80;99.90;;;;;;5055758;28;20040;-66
2023/01/08 00:30:05;;;;;;;6.40;3.70;;;9.80;99.90;;;;;;5054732;28;20464;-65
2023/01/08 00:32:31;;;;;;;6.75;3.38;;;9.80;99.90;;;;;;5039188;28;20119;-65
2023/01/08 00:34:57;;;;;;;6.22;3.47;;;9.80;99.90;;;;;;5073080;28;20152;-65
2023/01/08 00:37:23;;;;;;;6.43;3.67;;;9.80;99.90;;;;;;5037877;28;20048;-65
2023/01/08 00:39:48;;;;;;;6.40;3.60;;;9.80;99.90;;;;;;5055249;28;20041;-65
2023/01/08 00:42:14;;;;;;;6.43;3.63;;;9.80;99.90;;;;;;5055646;28;20066;-65
2023/01/08 00:44:40;;;;;;;7.75;3.92;;;9.80;99.90;;;;;;5037970;28;20123;-65
2023/01/08 00:47:05;;;;;;;7.43;3.60;;;9.70;99.90;;;;;;5055065;28;20036;-65
2023/01/08 00:49:31;;;;;;;8.40;4.10;;;9.70;99.90;;;;;;5054889;28;20084;-65
2023/01/08 00:51:56;;;;;;;15.52;4.10;;;9.70;99.90;;;;;;5053875;28;20047;-65
2023/01/08 00:54:22;;;;;;;6.05;3.38;;;9.70;99.90;;;;;;5072960;28;20043;-65
2023/01/08 00:56:48;;;;;;;6.25;3.92;;;9.70;99.90;;;;;;5055111;28;20128;-65
2023/01/08 00:59:14;;;;;;;8.30;4.72;;;9.60;99.90;;;;;;5071953;28;20047;-65
2023/01/08 01:01:39;;;;;;;6.18;3.28;;;9.60;99.90;;;;;;5038921;28;20056;-65
2023/01/08 01:04:05;;;;;;;6.97;3.17;;;9.50;99.90;;;;;;5072446;28;20497;-65
2023/01/08 01:06:31;;;;;;;6.07;3.25;;;9.50;99.90;;;;;;5072318;28;20125;-65
2023/01/08 01:08:56;;;;;;;6.63;2.85;;;9.50;99.90;;;;;;5054623;28;20481;-65
2023/01/08 01:11:24;;;;;;;6.78;3.00;;;9.50;99.90;;;;;;5037395;28;20043;-65
2023/01/08 01:13:51;;;;;;;8.60;3.15;;;9.50;99.90;;;;;;5038135;28;20040;-66
2023/01/08 01:16:17;;;;;;;7.90;2.83;;;9.40;99.90;;;;;;5054673;28;20044;-65
2023/01/08 01:18:44;;;;;;;14.50;2.85;;;9.40;99.90;;;;;;5037384;28;20610;-65
2023/01/08 01:21:11;;;;;;;6.68;2.25;;;9.40;99.90;;;;;;5072550;28;20044;-65
2023/01/08 01:23:37;;;;;;;7.10;2.67;;;9.40;99.90;;;;;;5054594;28;20083;-65
2023/01/08 01:26:03;;;;;;;5.82;2.05;;;9.40;99.90;;;;;;5053687;28;20071;-65
2023/01/08 01:28:28;;;;;;;7.68;1.88;;;9.40;99.90;;;;;;5037878;28;20139;-65
2023/01/08 01:30:55;;;;;;;6.38;2.83;;;9.40;99.90;;;;;;5054314;28;20040;-65
2023/01/08 01:33:21;;;;;;;8.00;2.15;;;9.40;99.90;;;;;;5053501;28;20044;-65
2023/01/08 01:35:47;;;;;;;8.15;2.53;;;9.30;99.90;;;;;;5072335;28;20108;-65
2023/01/08 01:38:13;;;;;;;6.78;2.15;;;9.30;99.90;;;;;;5054472;28;20500;-65
2023/01/08 01:40:42;;;;;;;5.43;2.00;;;9.30;99.90;;;;;;5071740;28;20048;-65
2023/01/08 01:43:14;;;;;;;9.98;2.30;;;9.30;99.90;;;;;;5054510;28;20063;-65
2023/01/08 01:45:41;;;;;;;8.10;2.80;;;9.30;99.90;;;;;;5072195;28;20078;-65
2023/01/08 01:48:11;;;;;;;6.10;2.35;;;9.30;99.90;;;;;;5071319;28;20440;-65
2023/01/08 01:50:45;;;;;;;13.65;2.75;;;9.30;99.90;;;;;;5072503;28;20044;-65
2023/01/08 01:53:18;;;;;;;6.68;2.45;;;9.30;99.90;;;;;;5053939;28;20370;-65
2023/01/08 01:55:44;;;;;;;10.63;3.15;;;9.30;99.90;;;;;;5053547;28;20036;-65
2023/01/08 01:58:27;;;;;;;9.30;2.58;;;9.30;99.90;;;;;;5071818;28;20051;-65
2023/01/08 02:00:56;;;;;;;7.78;2.38;;;9.30;99.90;;;;;;5053201;28;20079;-65
2023/01/08 02:03:24;;;;;;;7.50;2.05;;;9.20;99.90;;;;;;5072032;28;20040;-65
2023/01/08 02:05:56;;;;;;;8.43;2.58;;;9.20;99.90;;;;;;5054200;28;20480;-65
2023/01/08 02:08:31;;;;;;;9.25;2.13;;;9.20;99.90;;;;;;5052748;28;20127;-65
2023/01/08 02:11:11;;;;;;;10.02;3.20;;;9.10;99.90;;;;;;5054188;28;20048;-65
2023/01/08 02:13:45;;;;;;;10.30;2.40;;;9.10;99.90;;;;;;5054423;28;20397;-65
2023/01/08 02:16:36;;;;;;;12.60;2.78;;;9.10;99.90;;;;;;5071053;28;20115;-65
2023/01/08 02:19:41;;;;;;;10.30;2.55;;;9.00;99.90;;;;;;5053697;28;20048;-65
2023/01/08 02:22:48;;;;;;;7.13;2.92;;;9.00;99.90;;;;;;5018403;28;20076;-65
2023/01/08 02:25:27;;;;;;;8.18;2.15;;;8.90;99.90;;;;;;5003846;28;20056;-65
2023/01/08 02:27:54;;;;;;;12.57;2.50;;;8.90;99.90;;;;;;5053964;28;20036;-65
2023/01/08 02:30:20;;;;;;;9.45;2.25;;;8.90;99.90;;;;;;5053252;28;20371;-65
2023/01/08 02:32:46;;;;;;;16.65;3.20;;;8.90;99.90;;;;;;5053716;28;20055;-65
2023/01/08 02:35:12;;;;;;;9.60;2.72;;;8.90;99.90;;;;;;5053404;28;20040;-65
2023/01/08 02:37:39;;;;;;;9.80;2.47;;;8.90;99.90;;;;;;5071033;28;20498;-65
2023/01/08 02:40:29;;;;;;;9.07;2.42;;;8.90;99.90;;;;;;5053498;28;20127;-65
2023/01/08 02:43:07;;;;;;;14.77;3.17;;;8.90;99.90;;;;;;5036449;28;20146;-65
2023/01/08 02:45:55;;;;;;;10.13;3.17;;;8.80;99.90;;;;;;5071672;28;20051;-65
2023/01/08 02:48:35;;;;;;;9.75;2.83;;;8.80;99.90;;;;;;5071425;28;20067;-65
2023/01/08 02:51:08;;;;;;;9.98;2.60;;;8.80;99.90;;;;;;5052636;28;20049;-65
2023/01/08 02:53:39;;;;;;;8.38;2.33;;;8.80;99.90;;;;;;5071866;28;20063;-65
2023/01/08 02:56:12;;;;;;;9.60;2.80;;;8.70;99.90;;;;;;5071258;28;20115;-65
2023/01/08 02:58:39;;;;;;;10.95;3.45;;;8.70;99.90;;;;;;5052815;28;20112;-65
2023/01/08 03:01:09;;;;;;;11.05;2.63;;;8.70;99.90;;;;;;5053172;28;20052;-65
2023/01/08 03:03:37;;;;;;;12.02;2.58;;;8.70;99.90;;;;;;5053725;28;20072;-65
2023/01/08 03:06:13;;;;;;;12.00;2.85;;;8.70;99.90;;;;;;5052247;28;20055;-65
2023/01/08 03:08:42;;;;;;;12.30;2.53;;;8.70;99.90;;;;;;5037187;28;20438;-65
2023/01/08 03:11:13;;;;;;;10.82;2.63;;;8.60;99.90;;;;;;5070434;28;20039;-65
2023/01/08 03:13:40;;;;;;;17.08;4.07;;;8.60;99.90;;;;;;5054985;28;20044;-65
2023/01/08 03:16:15;;;;;;;12.43;3.20;;;8.60;99.90;;;;;;5040368;28;20457;-65
2023/01/08 03:18:44;;;;;;;;;;;8.50;99.90;;;;;;5056918;28;20485;-65
2023/01/08 03:21:11;;;;;;;10.82;3.25;;;8.50;99.90;;;;;;5057053;28;20296;-65
2023/01/08 03:23:38;;;;;;;16.27;3.58;;;8.50;99.90;;;;;;5074838;28;20400;-65
2023/01/08 03:26:05;;;;;;;10.80;3.08;;;8.50;99.90;;;;;;5055770;28;20086;-65
2023/01/08 03:28:37;;;;;;;16.13;3.83;;;8.40;99.90;;;;;;5074858;28;20052;-65
2023/01/08 03:31:05;;;;;;;15.13;3.40;;;8.40;99.90;;;;;;5056948;28;20067;-65
2023/01/08 03:33:31;;;;;;;13.00;2.92;;;8.30;99.90;;;;;;5055930;28;20044;-65
2023/01/08 03:36:00;;;;;;;9.30;2.22;;;8.30;99.90;;;;;;5056551;28;20086;-65
2023/01/08 03:38:35;;;;;;;11.77;3.72;;;8.30;99.90;;;;;;5056464;28;20119;-65
2023/01/08 03:41:04;;;;;;;10.05;2.85;;;8.30;99.90;;;;;;5055590;28;20036;-65
2023/01/08 03:43:30;;;;;;;9.88;3.05;;;8.30;99.90;;;;;;5056634;28;20044;-65
2023/01/08 03:46:01;;;;;;;8.60;2.67;;;8.30;99.90;;;;;;5039860;28;20037;-65
2023/01/08 03:48:30;;;;;;;11.32;2.53;;;8.20;99.90;;;;;;5055265;28;20041;-65
2023/01/08 03:50:55;;;;;;;11.45;3.17;;;8.20;99.90;;;;;;5074210;28;20041;-65
2023/01/08 03:53:21;;;;;;;11.32;2.75;;;8.20;99.90;;;;;;5039174;28;20045;-65
2023/01/08 03:55:47;;;;;;;8.55;2.08;;;8.10;99.90;;;;;;5056309;28;20032;-65
2023/01/08 03:58:12;;;;;;;11.68;3.20;;;8.10;99.90;;;;;;5056146;28;20048;-65
2023/01/08 04:00:38;;;;;;;9.55;3.13;;;8.10;99.90;;;;;;5039038;28;20048;-65
2023/01/08 04:03:04;;;;;;;8.63;2.40;;;8.10;99.90;;;;;;5055586;28;20076;-65
2023/01/08 04:05:30;;;;;;;6.75;2.10;;;8.10;99.90;;;;;;5056204;28;20037;-65
2023/01/08 04:07:56;;;;;;;5.80;2.40;;;8.10;99.90;;;;;;5055176;28;20040;-65
2023/01/08 04:10:23;;;;;;;8.70;3.08;;;8.00;99.90;;;;;;5073948;28;20043;-65
2023/01/08 04:12:49;;;;;;;9.43;2.47;;;8.10;99.90;;;;;;5073751;28;20668;-65
2023/01/08 04:15:15;;;;;;;10.65;2.83;;;8.10;99.90;;;;;;5038318;28;20119;-65
2023/01/08 04:17:41;;;;;;;7.70;2.40;;;8.00;99.90;;;;;;5055882;28;20046;-65
2023/01/08 04:20:07;;;;;;;9.50;2.60;;;8.00;99.90;;;;;;5074006;28;20455;-66
2023/01/08 04:22:33;;;;;;;7.07;2.30;;;8.00;99.90;;;;;;5055087;28;20049;-66
2023/01/08 04:24:59;;;;;;;8.50;2.70;;;8.00;99.90;;;;;;5054712;28;20044;-66
2023/01/08 04:27:24;;;;;;;7.97;2.50;;;8.00;99.90;;;;;;5055537;28;20489;-66
2023/01/08 04:29:50;;;;;;;12.90;2.90;;;8.00;99.90;;;;;;5072871;28;20500;-65
2023/01/08 04:32:15;;;;;;;7.50;2.70;;;8.00;99.90;;;;;;5055345;28;20047;-65
2023/01/08 04:34:41;;;;;;;6.65;1.90;;;8.00;99.90;;;;;;5055762;28;20397;-65
2023/01/08 04:37:07;;;;;;;9.90;2.85;;;8.00;99.90;;;;;;5054968;28;20386;-66
2023/01/08 04:39:32;;;;;;;5.97;2.63;;;8.00;99.90;;;;;;5073507;28;20483;-66
2023/01/08 04:41:58;;;;;;;7.72;2.67;;;8.00;99.90;;;;;;5073278;28;20485;-66
2023/01/08 04:44:24;;;;;;;5.93;2.28;;;8.00;99.90;;;;;;5054570;28;20108;-65
2023/01/08 04:46:49;;;;;;;8.75;2.85;;;8.00;99.90;;;;;;5055337;28;20040;-66
2023/01/08 04:49:15;;;;;;;7.13;2.72;;;8.00;99.90;;;;;;5054940;28;20044;-65
2023/01/08 04:51:41;;;;;;;7.00;2.60;;;8.00;99.90;;;;;;5054565;28;20079;-66
2023/01/08 04:54:06;;;;;;;8.25;3.22;;;8.00;99.90;;;;;;5073114;28;20494;-65
2023/01/08 04:56:32;;;;;;;8.02;2.88;;;7.90;99.90;;;;;;5072271;28;20393;-66
2023/01/08 04:58:58;;;;;;;7.70;2.63;;;8.00;99.90;;;;;;5055255;28;20119;-66
2023/01/08 05:01:25;;;;;;;8.13;2.63;;;7.90;99.90;;;;;;5054803;28;20513;-66
2023/01/08 05:03:59;;;;;;;8.82;2.40;;;7.90;99.90;;;;;;5072009;28;20450;-66
2023/01/08 05:06:27;;;;;;;5.43;2.08;;;8.00;99.90;;;;;;5072904;28;20051;-65
2023/01/08 05:08:53;;;;;;;6.97;2.50;;;8.00;99.90;;;;;;5054823;28;20056;-66
2023/01/08 05:11:19;;;;;;;10.35;2.83;;;8.00;99.90;;;;;;5037425;28;20048;-66
2023/01/08 05:13:48;;;;;;;6.43;2.08;;;8.00;99.90;;;;;;5054610;28;20111;-66
2023/01/08 05:16:14;;;;;;;9.30;2.90;;;8.00;99.90;;;;;;5037981;28;20044;-66
2023/01/08 05:18:39;;;;;;;6.10;2.30;;;8.00;99.90;;;;;;5054058;28;20101;-66
2023/01/08 05:21:05;;;;;;;5.72;2.35;;;8.00;99.90;;;;;;5054276;28;20080;-66
2023/01/08 05:23:32;;;;;;;7.97;2.40;;;8.00;99.90;;;;;;5072751;28;20028;-65
2023/01/08 05:26:03;;;;;;;6.30;2.10;;;8.00;99.90;;;;;;5053671;28;20050;-66
2023/01/08 05:28:29;;;;;;;6.82;2.33;;;8.10;99.90;;;;;;5054498;28;20055;-66
2023/01/08 05:30:55;;;;;;;6.97;1.85;;;8.10;99.90;;;;;;5054353;28;20040;-66
2023/01/08 05:33:21;;;;;;;9.18;2.13;;;8.00;99.90;;;;;;5053853;28;20041;-66
2023/01/08 05:35:46;;;;;;;8.38;2.40;;;8.00;99.90;;;;;;5054026;28;20477;-66
2023/01/08 05:38:12;;;;;;;3.50;1.60;;;8.00;99.90;;;;;;5054190;28;20043;-66
2023/01/08 05:40:37;;;;;;;5.97;2.15;;;7.90;99.90;;;;;;5053887;28;20397;-66
2023/01/08 05:43:04;;;;;;;7.30;2.55;;;7.90;99.90;;;;;;5054113;28;20044;-66
2023/01/08 05:45:33;;;;;;;6.82;1.80;;;7.90;99.90;;;;;;5072364;28;20040;-66
2023/01/08 05:47:59;;;;;;;4.53;1.88;;;7.90;99.90;;;;;;5036624;28;20047;-66
2023/01/08 05:50:27;;;;;;;4.68;1.95;;;7.90;99.90;;;;;;5054739;28;20044;-66
2023/01/08 05:52:53;;;;;;;5.00;2.13;;;7.80;99.90;;;;;;5036886;28;20037;-65
2023/01/08 05:55:19;;;;;;;7.78;2.45;;;7.80;99.90;;;;;;5054124;28;20043;-65
2023/01/08 05:57:44;;;;;;;7.97;2.25;;;7.80;99.90;;;;;;5037274;28;20140;-66
2023/01/08 06:00:10;;;;;;;10.18;2.22;;;7.80;99.90;;;;;;5071437;28;20051;-66
2023/01/08 06:02:36;;;;;;;5.40;1.98;;;7.80;99.90;;;;;;5054206;28;20040;-65
2023/01/08 06:05:02;;;;;;;6.80;2.55;;;7.70;99.90;;;;;;5053963;28;20066;-66
2023/01/08 06:07:28;;;;;;;8.60;2.42;;;7.70;99.90;;;;;;5053139;28;20041;-66
2023/01/08 06:09:54;;;;;;;9.43;2.83;;;7.70;99.90;;;;;;5053927;28;20048;-65
2023/01/08 06:12:20;;;;;;;6.72;2.08;;;7.70;99.90;;;;;;5071768;28;20470;-65
2023/01/08 06:14:45;;;;;;;8.60;2.78;;;7.60;99.90;;;;;;5070997;28;20095;-65
2023/01/08 06:17:11;;;;;;;9.05;2.85;;;7.60;99.90;;;;;;5054047;28;20048;-65
2023/01/08 06:19:38;;;;;;;4.97;2.13;;;7.60;99.90;;;;;;5053970;28;20044;-66
2023/01/08 06:22:04;;;;;;;10.32;2.92;;;7.60;99.90;;;;;;5036357;28;20041;-66
2023/01/08 06:24:30;;;;;;;7.18;2.30;;;7.50;99.90;;;;;;5071975;28;20040;-65
2023/01/08 06:26:56;;;;;;;8.52;2.22;;;7.50;99.90;;;;;;5071622;28;20150;-65
2023/01/08 06:29:22;;;;;;;8.40;2.28;;;7.50;99.90;;;;;;5070555;28;20131;-65
2023/01/08 06:31:47;;;;;;;8.00;2.38;;;7.50;99.90;;;;;;5053818;28;20047;-66
2023/01/08 06:34:13;;;;;;;5.63;1.98;;;7.50;99.90;;;;;;5071613;28;20036;-65
2023/01/08 06:36:38;;;;;;;8.35;2.72;;;7.50;99.90;;;;;;5053283;28;20072;-66
2023/01/08 06:39:06;;;;;;;5.55;1.85;;;7.50;99.90;;;;;;5071359;28;20115;-65
2023/01/08 06:41:32;;;;;;;6.18;2.13;;;7.50;99.90;;;;;;5053801;28;20543;-66
2023/01/08 06:43:58;;;;;;;7.22;2.13;;;7.50;99.90;;;;;;5052965;28;20048;-66
2023/01/08 06:46:23;;;;;;;5.30;1.88;;;7.50;99.90;;;;;;5053800;28;20048;-66
2023/01/08 06:48:49;;;;;;;8.85;2.30;;;7.50;99.90;;;;;;5038410;28;20557;-66
2023/01/08 06:51:14;;;;;;;5.43;1.73;;;7.50;99.90;;;;;;5040389;28;20052;-66
2023/01/08 06:53:40;;;;;;;8.13;2.00;;;7.40;99.90;;;;;;5057972;28;20424;-66
2023/01/08 06:56:08;;;;;;;7.13;2.13;;;7.40;99.90;;;;;;5056364;28;20115;-65
2023/01/08 06:58:34;;;;;;;7.13;2.28;;;7.40;99.90;;;;;;5057790;28;20046;-66
2023/01/08 07:01:00;;;;;;;7.97;2.10;;;7.40;99.90;;;;;;5057222;28;20127;-66
2023/01/08 07:03:26;;;;;;;6.15;2.13;;;7.40;99.90;;;;;;5074378;28;20045;-65
2023/01/08 07:05:51;;;;;;;8.88;2.17;;;7.40;99.90;;;;;;5057118;28;20040;-66
2023/01/08 07:08:17;;;;;;;11.27;2.45;;;7.40;99.90;;;;;;5057027;28;20165;-66
2023/01/08 07:10:43;;;;;;;9.68;2.10;;;7.40;99.90;;;;;;5039458;28;20028;-66
2023/01/08 07:13:11;;;;;;;7.57;2.25;;;7.30;99.90;;;;;;5075138;28;20033;-66
2023/01/08 07:15:40;;;;;;;8.38;2.20;;;7.30;99.90;;;;;;5057232;28;20045;-66
2023/01/08 07:18:08;;;;;;;8.70;3.17;;;7.30;99.90;;;;;;5073793;28;20493;-66
2023/01/08 07:20:34;;;;;;;6.20;2.33;;;7.20;99.90;;;;;;5057174;28;20086;-66
2023/01/08 07:23:04;;;;;;;4.30;1.40;;;7.20;99.90;;;;;;5040382;28;20389;-66
2023/01/08 07:25:31;;;;;;;6.68;2.28;;;7.20;99.90;;;;;;5056181;28;20045;-66
2023/01/08 07:27:58;;;;;;;5.72;2.22;;;7.20;99.90;;;;;;5074834;28;20044;-66
2023/01/08 07:30:24;;;;;;;6.50;3.00;;;7.10;99.90;;;;;;5056670;28;20045;-66
2023/01/08 07:32:50;;;;;;;9.27;2.65;;;7.10;99.90;;;;;;5055885;28;20040;-66
2023/01/08 07:35:15;;;;;;;6.95;2.70;;;7.10;99.90;;;;;;5074454;28;20432;-66
2023/01/08 07:37:42;;;;;;;7.82;3.03;;;7.10;99.90;;;;;;5074677;28;20116;-66
2023/01/08 07:40:10;;;;;;;9.50;2.70;;;7.10;99.90;;;;;;5039193;28;20037;-66
2023/01/08 07:42:36;;;;;;;7.95;2.92;;;7.00;99.90;;;;;;5074861;28;20044;-66
2023/01/08 07:45:02;;;;;;;7.22;2.95;;;7.00;99.90;;;;;;5074462;28;20051;-66
2023/01/08 07:47:28;;;;;;;6.25;2.47;;;7.00;99.90;;;;;;5055631;28;20167;-65
2023/01/08 07:49:54;;;;;;;9.20;3.60;;;7.10;99.90;;;;;;5074168;28;20123;-66
2023/01/08 07:52:19;;;;;;;9.48;4.40;;;7.10;99.90;;;;;;5073222;28;20095;-65
2023/01/08 07:54:45;;;;;;;7.88;4.18;;;7.10;99.90;;;;;;5039572;28;20068;-66
2023/01/08 07:57:11;;;;;;;9.75;3.97;;;7.10;99.90;;;;;;5056086;28;20063;-66
2023/01/08 07:59:36;;;;;;;12.90;4.68;;;7.10;99.90;;;;;;5073583;28;20111;-66
2023/01/08 08:02:02;;;;;;;8.98;4.32;;;7.10;99.90;;;;;;5074150;28;20043;-66
2023/01/08 08:04:28;;;;;;;9.73;3.88;;;7.10;99.90;;;;;;5073961;28;20526;-66
2023/01/08 08:06:54;;;;;;;8.65;4.10;;;7.10;99.90;;;;;;5055002;28;20120;-66
2023/01/08 08:09:19;;;;;;;7.40;3.95;;;7.20;99.90;;;;;;5056008;28;20037;-66
2023/01/08 08:11:45;;;;;;;12.88;4.50;;;7.20;99.90;;;;;;5055888;28;20477;-66
2023/01/08 08:14:11;;;;;;;9.55;3.78;;;7.20;99.90;;;;;;5055197;28;20032;-66
2023/01/08 08:16:36;;;;;;;11.95;4.65;;;7.20;99.90;;;;;;5056148;28;20539;-65
2023/01/08 08:19:03;;;;;;;8.20;4.05;;;7.20;99.90;;;;;;5071226;28;20032;-66
2023/01/08 08:21:29;;;;;;;10.27;4.65;;;7.20;99.90;;;;;;5057456;28;20070;-66
2023/01/08 08:23:55;;;;;;;13.30;4.50;;;7.30;99.90;;;;;;5060825;28;20036;-66
2023/01/08 08:26:21;;;;;;;9.68;4.05;;;7.20;99.90;;;;;;5057858;28;20093;-66
2023/01/08 08:28:47;;;;;;;12.35;3.88;;;7.30;99.90;;;;;;5057959;28;20037;-66
2023/01/08 08:31:13;;;;;;;11.15;3.78;;;7.20;99.90;;;;;;5073512;28;20408;-65
2023/01/08 08:33:38;;;;;;;11.73;5.22;;;7.30;99.90;;;;;;5055919;28;20044;-65
2023/01/08 08:36:04;;;;;;;14.00;4.07;;;7.20;99.90;;;;;;5066236;28;20118;-65
2023/01/08 08:38:30;;;;;;;8.45;3.17;;;7.30;99.90;;;;;;5055409;28;20040;-65
2023/01/08 08:40:56;;;;;;;7.70;3.53;;;7.30;99.90;;;;;;5055489;28;20041;-65
2023/01/08 08:43:22;;;;;;;8.10;3.30;;;7.30;99.90;;;;;;5068550;28;20102;-65
2023/01/08 08:45:48;;;;;;;15.70;4.47;;;7.30;99.90;;;;;;5037153;28;20032;-65
2023/01/08 08:48:15;;;;;;;10.00;2.97;;;7.30;99.90;;;;;;5034185;28;20061;-66
2023/01/08 08:50:42;;;;;;;8.00;3.38;;;7.30;99.90;;;;;;5012531;28;20037;-65
2023/01/08 08:53:09;;;;;;;8.38;2.95;;;7.30;99.90;;;;;;5012951;28;20549;-65
2023/01/08 08:55:34;;;;;;;6.72;2.60;;;7.30;99.90;;;;;;5028949;28;20048;-65
2023/01/08 08:58:11;;;;;;;8.05;3.03;;;7.30;99.90;;;;;;5013054;28;20042;-65
2023/01/08 09:00:41;;;;;;;6.82;2.30;;;7.30;99.90;;;;;;5028994;28;20041;-65
2023/01/08 09:03:12;;;;;;;6.70;2.53;;;7.30;99.90;;;;;;5028678;28;20049;-66
2023/01/08 09:05:38;;;;;;;6.65;2.50;;;7.40;99.90;;;;;;5029475;28;20087;-65
2023/01/08 09:08:04;;;;;;;9.18;2.30;;;7.40;99.90;;;;;;5028788;28;20077;-64
2023/01/08 09:10:29;;;;;;;8.30;2.85;;;7.40;99.90;;;;;;5029766;28;20037;-64
2023/01/08 09:12:55;;;;;;;8.05;2.40;;;7.40;99.90;;;;;;5028935;28;20033;-64
2023/01/08 09:15:21;;;;;;;11.63;3.00;;;7.40;99.90;;;;;;5029033;28;20049;-64
2023/01/08 09:17:54;;;;;;;9.32;2.55;;;7.40;99.90;;;;;;5010176;28;20099;-64
2023/01/08 09:20:21;;;;;;;9.68;2.20;;;7.50;99.90;;;;;;5027629;28;20557;-64
2023/01/08 09:22:47;;;;;;;12.13;2.92;;;7.50;99.90;;;;;;5011982;28;20083;-64
2023/01/08 09:25:13;;;;;;;12.35;3.65;;;7.50;99.90;;;;;;5028736;28;20068;-65
2023/01/08 09:27:38;;;;;;;11.43;3.60;;;7.50;99.90;;;;;;5029821;28;20096;-65
2023/01/08 09:30:04;;;;;;;13.73;3.85;;;7.60;99.90;;;;;;5011698;28;20566;-65
2023/01/08 09:32:30;;;;;;;13.48;2.95;;;7.60;99.90;;;;;;5026800;28;20047;-65
2023/01/08 09:34:56;;;;;;;9.43;3.88;;;7.60;99.90;;;;;;5029255;28;20037;-66
2023/01/08 09:37:22;;;;;;;8.77;3.03;;;7.60;99.90;;;;;;5023937;28;20029;-66
2023/01/08 09:39:49;;;;;;;9.35;3.00;;;7.70;99.90;;;;;;5013503;28;20045;-66
2023/01/08 09:42:19;;;;;;;9.85;2.55;;;7.70;99.90;;;;;;5004696;28;20045;-66
2023/01/08 09:44:46;;;;;;;9.52;3.45;;;7.70;99.90;;;;;;5010508;28;20052;-66
2023/01/08 09:47:24;;;;;;;6.55;2.53;;;7.70;99.90;;;;;;5025703;28;20124;-65
2023/01/08 09:49:53;;;;;;;9.95;2.47;;;7.80;99.90;;;;;;5028196;28;20057;-66
2023/01/08 09:52:19;;;;;;;9.43;2.53;;;7.80;99.90;;;;;;5046883;28;20072;-66
2023/01/08 09:54:45;;;;;;;8.60;2.92;;;7.90;99.90;;;;;;5047647;28;20045;-65
2023/01/08 09:57:17;;;;;;;12.30;2.30;;;7.90;99.90;;;;;;5039958;28;20064;-66
2023/01/08 09:59:46;;;;;;;6.15;2.42;;;7.90;99.90;;;;;;5026939;28;20045;-65
2023/01/08 10:02:23;;;;;;;10.80;2.75;;;7.90;99.90;;;;;;5026930;28;20052;-64
2023/01/08 10:04:56;;;;;;;8.52;2.38;;;8.00;99.90;;;;;;5047542;28;20060;-65
2023/01/08 10:07:24;;;;;;;6.85;2.90;;;8.00;99.90;;;;;;5022888;28;20484;-65
2023/01/08 10:09:51;;;;;;;14.30;3.00;;;8.00;99.90;;;;;;5022908;28;20056;-65
2023/01/08 10:12:25;;;;;;;6.07;2.53;;;8.00;99.90;;;;;;5028652;28;20056;-65
2023/01/08 10:14:52;;;;;;;16.27;3.35;;;8.00;99.90;;;;;;5043257;28;20034;-65
2023/01/08 10:17:37;;;;;;;7.78;2.47;;;8.00;99.90;;;;;;5033485;28;20501;-65
2023/01/08 10:20:18;;;;;;;7.85;2.85;;;8.10;99.90;;;;;;5046169;28;20072;-65
2023/01/08 10:22:44;;;;;;;6.68;2.35;;;8.10;99.90;;;;;;5048600;28;20124;-65
2023/01/08 10:25:14;;;;;;;7.90;3.00;;;8.10;99.90;;;;;;5039448;28;20107;-65
2023/01/08 10:27:58;;;;;;;10.15;2.75;;;8.20;99.90;;;;;;5012208;28;20049;-65
2023/01/08 10:30:29;;;;;;;7.68;2.08;;;8.30;99.90;;;;;;5012220;28;20835;-65
2023/01/08 10:33:01;;;;;;;9.93;3.25;;;8.30;99.90;;;;;;5035270;28;20040;-67
2023/01/08 10:35:37;;;;;;;9.95;3.65;;;8.30;99.90;;;;;;5049101;28;20094;-67
2023/01/08 10:38:03;;;;;;;9.70;2.78;;;8.30;99.90;;;;;;5020675;28;20060;-67
2023/01/08 10:40:49;;;;;;;10.07;2.50;;;8.30;99.90;;;;;;5028934;28;20049;-67
2023/01/08 10:43:18;;;;;;;9.27;3.03;;;8.30;99.90;;;;;;5018128;28;20041;-67
2023/01/08 10:45:59;;;;;;;10.00;2.70;;;8.30;99.90;;;;;;5023372;28;20398;-66
2023/01/08 10:48:37;;;;;;;12.70;2.78;;;8.40;99.90;;;;;;5015581;28;20487;-67
2023/01/08 10:51:14;;;;;;;6.45;2.47;;;8.40;99.90;;;;;;5038063;28;20044;-67
2023/01/08 10:53:40;;;;;;;13.38;4.00;;;8.40;99.90;;;;;;5052331;28;20040;-67
2023/01/08 10:56:25;;;;;;;8.88;2.45;;;8.40;99.90;;;;;;5049794;28;20044;-67
2023/01/08 10:58:51;;;;;;;14.48;3.50;;;8.50;99.90;;;;;;5048140;28;20517;-67
2023/01/08 11:01:19;;;;;;;9.10;3.28;;;8.50;99.90;;;;;;5038759;28;20095;-67
2023/01/08 11:03:50;;;;;;;10.68;2.42;;;8.50;99.90;;;;;;5051247;28;20128;-67
2023/01/08 11:06:31;;;;;;;11.95;3.33;;;8.50;99.90;;;;;;5051051;28;20056;-68
2023/01/08 11:08:59;;;;;;;8.18;2.80;;;8.60;99.90;;;;;;5047246;28;20049;-68
2023/01/08 11:11:35;;;;;;;10.82;3.20;;;8.60;99.90;;;;;;5033108;28;20075;-68
2023/01/08 11:14:04;;;;;;;11.30;2.55;;;8.60;99.90;;;;;;5035232;28;20121;-68
2023/01/08 11:16:38;;;;;;;9.38;2.42;;;8.60;99.90;;;;;;5051476;28;20036;-68
2023/01/08 11:19:13;;;;;;;11.02;2.47;;;8.60;99.90;;;;;;5050314;28;20105;-67
2023/01/08 11:21:38;;;;;;;;;;;8.60;99.90;;;;;;5053239;28;20450;-68
2023/01/08 11:24:19;;;;;;;5.47;2.08;;;8.60;99.90;;;;;;5049927;28;19921;-68
2023/01/08 11:26:50;;;;;;;8.75;2.30;;;8.70;99.90;;;;;;5051398;28;20059;-68
2023/01/08 11:29:22;;;;;;;7.85;2.17;;;8.70;99.90;;;;;;5050909;28;20485;-68
2023/01/08 11:32:12;;;;;;;8.23;2.50;;;8.70;99.90;;;;;;5049775;28;20052;-68
2023/01/08 11:34:56;;;;;;;6.97;2.03;;;8.70;99.90;;;;;;5051245;28;20044;-68
2023/01/08 11:37:24;;;;;;;7.85;2.40;;;8.80;99.90;;;;;;5033819;28;20040;-68
2023/01/08 11:39:52;;;;;;;12.10;2.83;;;8.80;99.90;;;;;;5050987;28;20132;-67
2023/01/08 11:42:33;;;;;;;8.77;2.75;;;8.80;99.90;;;;;;5050200;28;20559;-67
2023/01/08 11:45:04;;;;;;;8.95;2.22;;;8.80;99.90;;;;;;5032418;28;20254;-67
2023/01/08 11:47:49;;;;;;;11.27;2.67;;;8.80;99.90;;;;;;5050482;28;20068;-67
2023/01/08 11:50:28;;;;;;;9.82;2.45;;;8.80;99.90;;;;;;5051848;28;20045;-68
2023/01/08 11:53:31;;;;;;;13.00;3.10;;;8.90;99.90;;;;;;5033420;28;20052;-67
2023/01/08 11:56:22;;;;;;;8.73;2.95;;;8.90;99.90;;;;;;5066196;28;20394;-68
2023/01/08 11:58:50;;;;;;;8.73;2.47;;;8.90;99.90;;;;;;5049889;28;20048;-67
2023/01/08 12:01:45;;;;;;;15.10;4.10;;;8.90;99.90;;;;;;5033507;28;20048;-67
2023/01/08 12:04:31;;;;;;;9.07;3.20;;;8.90;99.90;;;;;;5049999;28;20076;-67
2023/01/08 12:07:19;;;;;;;9.70;3.63;;;8.90;99.90;;;;;;5038496;28;20519;-67
2023/01/08 12:10:14;;;;;;;9.57;3.10;;;8.90;99.90;;;;;;5050203;28;20051;-67
2023/01/08 12:12:57;;;;;;;10.70;3.58;;;8.90;99.90;;;;;;5030280;28;20053;-67
2023/01/08 12:15:36;;;;;;;10.90;4.00;;;8.90;99.90;;;;;;5027204;28;20040;-68
2023/01/08 12:18:37;;;;;;;10.82;3.03;;;8.90;99.90;;;;;;5034329;28;20363;-68
2023/01/08 12:21:27;;;;;;;10.38;3.35;;;8.90;99.90;;;;;;5045212;28;20048;-67
2023/01/08 12:24:24;;;;;;;8.25;3.30;;;8.90;99.90;;;;;;5050127;28;20098;-67
2023/01/08 12:27:14;;;;;;;11.55;3.97;;;9.00;99.90;;;;;;5048625;28;20053;-67
2023/01/08 12:29:54;;;;;;;12.70;3.72;;;9.00;99.90;;;;;;5037931;28;20041;-67
2023/01/08 12:32:29;;;;;;;10.00;2.72;;;9.00;99.90;;;;;;5049323;28;20079;-67
2023/01/08 12:35:09;;;;;;;8.25;2.92;;;9.00;99.90;;;;;;5048656;28;20085;-68
2023/01/08 12:37:44;;;;;;;10.50;3.03;;;9.00;99.90;;;;;;5049522;28;20041;-67
2023/01/08 12:40:44;;;;;;;11.05;3.53;;;9.00;99.90;;;;;;5048846;28;20071;-67
2023/01/08 12:43:23;;;;;;;10.60;4.07;;;9.00;99.90;;;;;;5021499;28;20107;-67
2023/01/08 12:45:52;;;;;;;10.90;3.00;;;9.00;99.90;;;;;;5012703;28;20767;-67
2023/01/08 12:48:26;;;;;;;10.75;4.45;;;9.00;99.90;;;;;;5022788;28;20072;-65
2023/01/08 12:51:08;;;;;;;13.93;3.60;;;9.10;99.90;;;;;;5025579;28;20494;-65
2023/01/08 12:53:53;;;;;;;8.55;3.35;;;9.10;99.90;;;;;;5029526;28;20441;-65
2023/01/08 12:56:22;;;;;;;11.40;3.28;;;9.10;99.90;;;;;;5008605;28;20514;-64
2023/01/08 12:58:53;;;;;;;9.38;3.83;;;9.00;99.90;;;;;;5009917;28;20434;-65
2023/01/08 13:01:44;;;;;;;13.35;3.42;;;9.00;99.90;;;;;;5011076;28;20052;-64
2023/01/08 13:04:11;;;;;;;9.05;3.30;;;9.00;99.90;;;;;;5029050;28;20037;-64
2023/01/08 13:06:37;;;;;;;10.80;3.55;;;9.00;99.90;;;;;;5029731;28;20050;-65
2023/01/08 13:09:03;;;;;;;9.75;4.03;;;9.00;99.90;;;;;;5025166;28;20033;-64